Time;durP1;ratioP1;P1;durP2;ratioP2;P2;SDS_P1;SDS_P2;PMS_P1;PMS_P2;Temp;Humidity;BMP_temperature;BMP_pressure;BME280_temperature;BME280_humidity;BME280_pressure;Samples;Min_cycle;Max_cycle;Signal;HPM_P1;HPM_P2
2021/11/11 00:01:52;;;;;;;9.02;4.82;;;;;;;2.51;100.00;101549.78;5151863;28;20026;-82
2021/11/11 00:04:22;;;;;;;9.32;4.88;;;;;;;2.38;100.00;101553.09;5163605;28;20054;-82
2021/11/11 00:06:59;;;;;;;7.05;4.30;;;;;;;2.38;100.00;101562.53;5151415;28;20034;-82
2021/11/11 00:09:29;;;;;;;10.35;4.60;;;;;;;2.36;100.00;101565.06;5148668;28;20038;-81
2021/11/11 00:12:00;;;;;;;7.55;4.03;;;;;;;2.37;100.00;101563.38;5147558;28;20022;-82
2021/11/11 00:14:30;;;;;;;7.57;4.53;;;;;;;2.42;100.00;101559.13;5167957;28;20112;-81
2021/11/11 00:17:01;;;;;;;7.55;4.70;;;;;;;2.52;100.00;101555.81;5166145;28;20025;-81
2021/11/11 00:19:31;;;;;;;11.52;4.72;;;;;;;2.38;100.00;101545.34;5166260;28;20034;-81
2021/11/11 00:22:02;;;;;;;9.73;4.85;;;;;;;2.37;100.00;101553.06;5146973;28;20032;-81
2021/11/11 00:24:33;;;;;;;6.72;4.03;;;;;;;2.38;100.00;101544.47;5168165;28;20026;-81
2021/11/11 00:27:03;;;;;;;8.77;4.55;;;;;;;2.30;100.00;101548.66;5148128;28;20085;-82
2021/11/11 00:29:33;;;;;;;8.23;4.50;;;;;;;2.25;100.00;101542.56;5147645;28;20027;-82
2021/11/11 00:32:04;;;;;;;8.57;4.07;;;;;;;2.17;100.00;101537.31;5149058;28;20034;-82
2021/11/11 00:34:35;;;;;;;7.95;4.20;;;;;;;2.17;100.00;101541.63;5165366;28;20082;-82
2021/11/11 00:37:06;;;;;;;6.80;3.78;;;;;;;2.20;100.00;101545.06;5150562;28;20053;-82
2021/11/11 00:39:37;;;;;;;8.63;4.32;;;;;;;2.12;100.00;101540.66;5167952;28;20053;-82
2021/11/11 00:42:07;;;;;;;7.60;4.38;;;;;;;2.23;100.00;101533.94;5144660;28;20095;-81
2021/11/11 00:44:37;;;;;;;8.50;4.40;;;;;;;2.32;100.00;101534.94;5167165;28;20034;-81
2021/11/11 00:47:08;;;;;;;8.95;4.15;;;;;;;2.16;100.00;101529.56;5147546;28;20031;-81
2021/11/11 00:49:38;;;;;;;6.65;4.00;;;;;;;2.07;100.00;101525.16;5151745;28;20038;-82
2021/11/11 00:52:09;;;;;;;6.88;4.13;;;;;;;2.08;100.00;101520.84;5168663;28;20037;-81
2021/11/11 00:54:41;;;;;;;6.35;3.78;;;;;;;1.98;100.00;101519.00;5146595;28;20489;-81
2021/11/11 00:57:11;;;;;;;7.32;3.90;;;;;;;1.99;100.00;101520.75;5146328;28;20034;-82
2021/11/11 00:59:43;;;;;;;6.25;3.60;;;;;;;2.06;100.00;101527.69;5152836;28;20846;-81
2021/11/11 01:02:13;;;;;;;8.77;4.10;;;;;;;2.02;100.00;101528.50;5167841;28;20025;-82
2021/11/11 01:04:43;;;;;;;8.65;4.03;;;;;;;2.01;100.00;101517.31;5147853;28;20026;-81
2021/11/11 01:07:14;;;;;;;6.45;4.03;;;;;;;2.15;100.00;101515.78;5147700;28;20023;-81
2021/11/11 01:09:44;;;;;;;7.50;3.90;;;;;;;2.12;100.00;101517.47;5154590;28;20022;-81
2021/11/11 01:12:15;;;;;;;7.63;4.50;;;;;;;2.13;100.00;101524.38;5163389;28;20068;-81
2021/11/11 01:14:45;;;;;;;8.57;4.05;;;;;;;2.09;100.00;101517.44;5165141;28;20030;-80
2021/11/11 01:17:15;;;;;;;10.32;4.32;;;;;;;1.88;100.00;101506.81;5148326;28;20625;-81
2021/11/11 01:19:46;;;;;;;8.85;4.05;;;;;;;1.95;100.00;101504.34;5159790;28;20022;-82
2021/11/11 01:22:16;;;;;;;6.43;3.75;;;;;;;1.83;100.00;101508.47;5147018;28;20038;-82
2021/11/11 01:24:47;;;;;;;7.10;2.97;;;;;;;1.87;100.00;101507.66;5139562;28;20034;-81
2021/11/11 01:27:17;;;;;;;8.40;3.50;;;;;;;1.89;100.00;101509.44;5145676;28;20118;-81
2021/11/11 01:29:47;;;;;;;6.65;3.90;;;;;;;1.83;100.00;101503.34;5150852;28;20030;-81
2021/11/11 01:32:18;;;;;;;7.20;3.58;;;;;;;1.81;100.00;101497.28;5143701;28;20438;-81
2021/11/11 01:34:48;;;;;;;6.45;3.65;;;;;;;1.77;100.00;101492.06;5141093;28;20019;-81
2021/11/11 01:37:18;;;;;;;9.10;4.32;;;;;;;1.67;100.00;101491.06;5139448;28;20023;-82
2021/11/11 01:39:49;;;;;;;13.60;4.45;;;;;;;1.81;100.00;101495.56;5160074;28;20026;-81
2021/11/11 01:42:19;;;;;;;6.55;3.83;;;;;;;1.69;100.00;101488.50;5142661;28;20029;-81
2021/11/11 01:44:55;;;;;;;9.07;4.30;;;;;;;1.87;100.00;101492.22;5152785;28;20428;-81
2021/11/11 01:47:25;;;;;;;8.60;4.38;;;;;;;1.93;100.00;101487.13;5153956;28;20035;-81
2021/11/11 01:49:56;;;;;;;7.90;4.38;;;;;;;1.89;100.00;101487.94;5161080;28;20099;-81
2021/11/11 01:52:26;;;;;;;8.98;4.18;;;;;;;1.95;100.00;101494.06;5157831;28;20026;-81
2021/11/11 01:54:56;;;;;;;8.02;4.20;;;;;;;2.03;100.00;101497.59;5138696;28;20034;-81
2021/11/11 01:57:27;;;;;;;7.20;4.00;;;;;;;2.02;100.00;101506.16;5164323;28;20054;-81
2021/11/11 01:59:58;;;;;;;9.80;4.55;;;;;;;1.97;100.00;101499.25;5162833;28;20022;-81
2021/11/11 02:02:29;;;;;;;9.13;4.63;;;;;;;1.98;100.00;101488.94;5140654;28;20027;-81
2021/11/11 02:05:00;;;;;;;7.47;4.45;;;;;;;1.90;100.00;101490.56;5143644;28;20389;-81
2021/11/11 02:07:30;;;;;;;7.55;4.45;;;;;;;1.81;100.00;101490.41;5159574;28;20046;-81
2021/11/11 02:10:00;;;;;;;8.23;3.97;;;;;;;1.88;100.00;101481.94;5138588;28;20118;-81
2021/11/11 02:12:31;;;;;;;8.23;4.20;;;;;;;1.92;100.00;101487.97;5142640;28;20109;-81
2021/11/11 02:15:02;;;;;;;10.40;4.50;;;;;;;1.81;100.00;101484.41;5142243;28;20294;-81
2021/11/11 02:17:33;;;;;;;7.68;3.85;;;;;;;1.56;100.00;101484.88;5159724;28;20069;-81
2021/11/11 02:20:06;;;;;;;6.20;3.58;;;;;;;1.88;100.00;101491.38;5160052;28;20023;-81
2021/11/11 02:22:38;;;;;;;6.63;3.75;;;;;;;1.97;100.00;101479.47;5141139;28;20027;-81
2021/11/11 02:25:13;;;;;;;6.85;3.80;;;;;;;2.08;100.00;101467.59;5153373;28;20023;-82
2021/11/11 02:27:45;;;;;;;7.00;3.80;;;;;;;1.56;100.00;101456.56;5164170;28;20037;-81
2021/11/11 02:30:17;;;;;;;6.72;3.63;;;;;;;1.61;100.00;101449.75;5160508;28;20393;-81
2021/11/11 02:32:48;;;;;;;6.80;3.88;;;;;;;1.52;100.00;101454.78;5141572;28;20030;-81
2021/11/11 02:35:20;;;;;;;11.27;4.70;;;;;;;1.51;100.00;101450.47;5158859;28;20643;-81
2021/11/11 02:37:51;;;;;;;8.27;3.78;;;;;;;1.44;100.00;101461.50;5133773;28;20354;-81
2021/11/11 02:40:24;;;;;;;7.40;3.80;;;;;;;1.57;100.00;101468.59;5137715;28;20022;-81
2021/11/11 02:42:55;;;;;;;8.35;4.32;;;;;;;1.73;100.00;101460.22;5158941;28;20029;-81
2021/11/11 02:45:29;;;;;;;7.80;4.22;;;;;;;1.67;100.00;101457.56;5156954;28;20022;-81
2021/11/11 02:48:01;;;;;;;11.70;4.35;;;;;;;1.83;100.00;101462.09;5138023;28;20528;-81
2021/11/11 02:50:32;;;;;;;7.45;3.80;;;;;;;1.72;100.00;101455.06;5136334;28;20038;-81
2021/11/11 02:53:04;;;;;;;6.95;4.30;;;;;;;1.80;100.00;101464.66;5155248;28;20034;-81
2021/11/11 02:55:34;;;;;;;11.80;4.53;;;;;;;1.69;100.00;101455.88;5143353;28;20495;-81
2021/11/11 02:58:06;;;;;;;9.00;4.15;;;;;;;1.74;100.00;101461.13;5138353;28;20057;-81
2021/11/11 03:00:43;;;;;;;9.85;4.28;;;;;;;1.73;100.00;101462.81;5148024;28;20041;-81
2021/11/11 03:03:13;;;;;;;9.15;4.32;;;;;;;1.93;100.00;101457.09;5158736;28;20097;-81
2021/11/11 03:05:45;;;;;;;6.63;3.67;;;;;;;1.76;100.00;101464.56;5137064;28;20117;-81
2021/11/11 03:08:15;;;;;;;7.15;3.70;;;;;;;1.87;100.00;101458.72;5156080;28;20026;-81
2021/11/11 03:10:47;;;;;;;7.63;3.80;;;;;;;1.78;100.00;101466.31;5155889;28;20035;-81
2021/11/11 03:13:20;;;;;;;9.35;4.20;;;;;;;1.64;100.00;101470.41;5142682;28;20491;-81
2021/11/11 03:15:55;;;;;;;6.82;3.90;;;;;;;1.68;100.00;101461.88;5163099;28;20070;-81
2021/11/11 03:18:25;;;;;;;9.18;3.97;;;;;;;1.52;100.00;101479.66;5136874;28;20027;-81
2021/11/11 03:20:56;;;;;;;8.32;4.28;;;;;;;1.50;100.00;101471.91;5141565;28;20085;-81
2021/11/11 03:23:26;;;;;;;8.05;4.18;;;;;;;1.49;100.00;101477.91;5137425;28;20023;-79
2021/11/11 03:25:57;;;;;;;7.28;4.10;;;;;;;1.47;100.00;101486.44;5139827;28;20033;-80
2021/11/11 03:28:27;;;;;;;8.07;4.30;;;;;;;1.52;100.00;101484.81;5144139;28;20496;-81
2021/11/11 03:30:57;;;;;;;7.60;4.00;;;;;;;1.50;100.00;101486.50;5162255;28;20062;-80
2021/11/11 03:33:27;;;;;;;7.10;3.95;;;;;;;1.46;100.00;101500.16;5140149;28;20033;-81
2021/11/11 03:35:58;;;;;;;6.78;4.10;;;;;;;1.42;100.00;101499.25;5135756;28;20425;-80
2021/11/11 03:38:29;;;;;;;7.78;4.05;;;;;;;1.48;100.00;101503.63;5138796;28;20030;-80
2021/11/11 03:41:00;;;;;;;8.05;4.15;;;;;;;1.49;100.00;101508.81;5135174;28;20027;-79
2021/11/11 03:43:32;;;;;;;7.13;4.10;;;;;;;1.44;100.00;101507.84;5153609;28;20034;-79
2021/11/11 03:46:03;;;;;;;7.40;4.07;;;;;;;1.45;100.00;101514.78;5142059;28;20027;-82
2021/11/11 03:48:33;;;;;;;8.85;4.60;;;;;;;1.43;100.00;101510.44;5155121;28;20113;-80
2021/11/11 03:51:04;;;;;;;8.52;4.60;;;;;;;1.50;100.00;101513.13;5135964;28;20102;-80
2021/11/11 03:53:35;;;;;;;9.15;4.40;;;;;;;1.62;100.00;101517.59;5153929;28;20042;-80
2021/11/11 03:56:05;;;;;;;7.07;4.22;;;;;;;1.65;100.00;101505.63;5134783;28;20030;-79
2021/11/11 03:58:36;;;;;;;7.00;3.88;;;;;;;1.66;100.00;101514.22;5141037;28;20052;-81
2021/11/11 04:01:06;;;;;;;6.25;3.90;;;;;;;1.54;100.00;101514.06;5205281;22;20046;-80
2021/11/11 04:03:37;;;;;;;7.32;4.05;;;;;;;1.54;100.00;101520.06;5183977;28;20037;-77
2021/11/11 04:06:07;;;;;;;8.38;4.10;;;;;;;1.42;100.00;101513.84;5190601;28;20041;-81
2021/11/11 04:08:38;;;;;;;6.43;3.95;;;;;;;1.42;100.00;101499.25;5187947;28;20115;-79
2021/11/11 04:11:08;;;;;;;7.75;4.25;;;;;;;1.45;100.00;101499.31;5190368;28;20018;-78
2021/11/11 04:13:39;;;;;;;8.38;4.60;;;;;;;1.33;100.00;101504.25;5189639;28;20109;-79
2021/11/11 04:16:09;;;;;;;6.82;4.00;;;;;;;1.28;100.00;101500.75;5180555;28;20064;-76
2021/11/11 04:18:42;;;;;;;5.95;3.90;;;;;;;1.20;100.00;101517.78;5186140;28;20026;-79
2021/11/11 04:21:12;;;;;;;7.35;4.00;;;;;;;1.23;100.00;101517.81;5185476;28;20064;-79
2021/11/11 04:23:44;;;;;;;7.80;4.10;;;;;;;1.25;100.00;101516.13;5197454;28;20029;-81
2021/11/11 04:26:29;;;;;;;7.65;4.13;;;;;;;1.33;100.00;101508.53;5196136;28;20037;-81
2021/11/11 04:29:02;;;;;;;6.70;3.95;;;;;;;1.27;100.00;101503.31;5182841;28;20489;-77
2021/11/11 04:31:37;;;;;;;7.88;4.22;;;;;;;1.34;100.00;101505.13;5185891;28;20049;-79
2021/11/11 04:34:11;;;;;;;5.95;3.50;;;;;;;1.37;100.00;101500.91;5180977;28;20026;-81
2021/11/11 04:42:15;;;;;;;8.40;4.15;;;;;;;1.43;100.00;101492.41;5189060;28;20120;-79
2021/11/11 04:52:49;;;;;;;8.95;4.70;;;;;;;1.45;100.00;101488.13;5195045;28;20036;-79
2021/11/11 05:03:35;;;;;;;7.00;4.15;;;;;;;1.27;100.00;101495.56;5189122;28;20029;-80
2021/11/11 05:06:06;;;;;;;7.22;4.15;;;;;;;1.17;100.00;101507.44;5175027;28;20014;-82
2021/11/11 05:08:37;;;;;;;7.90;4.43;;;;;;;1.19;100.00;101498.03;5174427;28;20053;-78
2021/11/11 05:11:08;;;;;;;7.78;4.35;;;;;;;1.21;100.00;101492.91;5175943;28;20499;-77
2021/11/11 05:13:39;;;;;;;7.90;4.28;;;;;;;1.31;100.00;101498.22;5180535;28;20049;-77
2021/11/11 05:16:09;;;;;;;7.85;4.00;;;;;;;1.25;100.00;101505.84;5180407;28;20030;-76
2021/11/11 05:18:39;;;;;;;7.78;4.10;;;;;;;1.30;100.00;101519.66;5189632;28;20032;-76
2021/11/11 05:21:10;;;;;;;10.00;4.10;;;;;;;1.23;100.00;101517.81;5193282;28;20052;-78
2021/11/11 05:23:41;;;;;;;10.23;3.95;;;;;;;1.31;100.00;101516.25;5186764;28;20032;-78
2021/11/11 05:26:12;;;;;;;8.25;4.40;;;;;;;1.28;100.00;101523.94;5189131;28;20517;-77
2021/11/11 05:28:42;;;;;;;9.00;3.95;;;;;;;1.47;100.00;101518.22;5192371;28;20113;-78
2021/11/11 05:31:13;;;;;;;8.10;3.80;;;;;;;1.51;100.00;101521.69;5184774;28;20033;-79
2021/11/11 05:33:43;;;;;;;11.63;3.92;;;;;;;1.62;100.00;101522.75;5187935;28;20617;-82
2021/11/11 05:36:14;;;;;;;6.45;3.90;;;;;;;1.55;100.00;101520.94;5204813;28;20542;-77
2021/11/11 05:38:44;;;;;;;7.55;4.28;;;;;;;1.50;100.00;101512.25;5194406;28;20108;-78
2021/11/11 05:41:14;;;;;;;6.15;3.90;;;;;;;1.53;100.00;101502.88;5188684;28;20030;-78
2021/11/11 05:43:45;;;;;;;7.07;4.00;;;;;;;1.23;100.00;101512.66;5187658;28;20029;-80
2021/11/11 05:46:15;;;;;;;6.68;3.22;;;;;;;1.22;100.00;101513.50;5183427;28;20033;-81
2021/11/11 05:48:45;;;;;;;6.95;4.00;;;;;;;1.25;100.00;101516.13;5193721;28;20115;-78
2021/11/11 05:51:15;;;;;;;6.38;3.83;;;;;;;1.62;100.00;101510.75;5202110;28;20033;-78
2021/11/11 05:53:46;;;;;;;8.38;3.78;;;;;;;1.45;100.00;101507.06;5188292;28;20754;-78
2021/11/11 05:56:16;;;;;;;8.73;3.88;;;;;;;1.47;100.00;101507.94;5195239;28;20041;-77
2021/11/11 05:58:47;;;;;;;7.82;3.95;;;;;;;1.58;100.00;101511.53;5190326;28;20164;-76
2021/11/11 06:01:19;;;;;;;7.25;4.22;;;;;;;1.55;100.00;101514.06;5178026;28;20033;-77
2021/11/11 06:03:49;;;;;;;7.57;3.72;;;;;;;1.36;100.00;101514.63;5171507;28;20039;-77
2021/11/11 06:06:19;;;;;;;10.20;4.47;;;;;;;1.43;100.00;101513.00;5187916;28;20041;-79
2021/11/11 06:08:50;;;;;;;8.48;4.65;;;;;;;1.50;100.00;101507.97;5172483;28;20037;-81
2021/11/11 06:11:21;;;;;;;10.48;5.15;;;;;;;1.48;100.00;101509.66;5178091;28;20502;-77
2021/11/11 06:13:52;;;;;;;9.45;4.47;;;;;;;1.53;100.00;101502.88;5175957;28;20018;-77
2021/11/11 06:16:22;;;;;;;10.85;4.93;;;;;;;1.68;100.00;101509.94;5175329;28;20035;-80
2021/11/11 06:18:53;;;;;;;9.88;5.47;;;;;;;1.83;100.00;101508.47;5181792;28;20025;-78
2021/11/11 06:21:24;;;;;;;10.13;4.78;;;;;;;1.77;100.00;101516.09;5198169;28;20068;-79
2021/11/11 06:23:54;;;;;;;13.98;4.90;;;;;;;1.91;100.00;101507.75;5187101;28;20037;-77
2021/11/11 06:26:25;;;;;;;9.63;4.25;;;;;;;1.95;100.00;101514.66;5187445;28;20061;-80
2021/11/11 06:28:55;;;;;;;8.40;4.50;;;;;;;2.13;100.00;101516.66;5187439;28;20394;-78
2021/11/11 06:31:25;;;;;;;8.70;4.53;;;;;;;2.04;100.00;101511.34;5176885;28;20026;-78
2021/11/11 06:33:56;;;;;;;9.88;4.25;;;;;;;2.29;100.00;101524.59;5183084;28;20017;-80
2021/11/11 06:36:27;;;;;;;9.93;4.88;;;;;;;2.08;100.00;101536.31;5175700;28;20463;-80
2021/11/11 06:38:57;;;;;;;10.23;4.57;;;;;;;2.03;100.00;101543.97;5174272;28;20032;-79
2021/11/11 06:41:27;;;;;;;9.80;4.80;;;;;;;2.22;100.00;101545.09;5176081;28;20758;-77
2021/11/11 06:43:58;;;;;;;10.55;5.20;;;;;;;2.14;100.00;101551.88;5188742;28;20018;-78
2021/11/11 06:46:28;;;;;;;9.95;4.80;;;;;;;2.20;100.00;101557.97;5187046;28;20041;-78
2021/11/11 06:48:59;;;;;;;8.32;4.85;;;;;;;2.38;100.00;101563.41;5194507;28;20028;-78
2021/11/11 06:51:29;;;;;;;9.45;4.88;;;;;;;2.34;100.00;101561.59;5176137;28;20053;-82
2021/11/11 06:53:59;;;;;;;10.80;5.10;;;;;;;2.43;100.00;101560.84;5182396;28;20022;-80
2021/11/11 06:56:29;;;;;;;9.82;5.32;;;;;;;2.43;100.00;101560.84;5193052;28;20448;-81
2021/11/11 06:59:00;;;;;;;11.60;5.25;;;;;;;2.59;100.00;101563.66;5181928;28;20033;-82
2021/11/11 07:01:30;;;;;;;10.50;5.30;;;;;;;2.63;100.00;101559.38;5176167;28;20034;-79
2021/11/11 07:04:00;;;;;;;9.75;4.95;;;;;;;2.85;100.00;101557.06;5184669;28;20184;-78
2021/11/11 07:06:31;;;;;;;8.52;4.15;;;;;;;2.65;100.00;101565.47;5182900;28;20034;-77
2021/11/11 07:09:02;;;;;;;9.35;4.53;;;;;;;2.64;100.00;101553.38;5179495;28;20121;-80
2021/11/11 07:11:33;;;;;;;10.25;4.32;;;;;;;2.80;100.00;101555.28;5186992;28;20084;-79
2021/11/11 07:14:03;;;;;;;7.93;4.18;;;;;;;3.03;100.00;101556.41;5183202;28;20021;-80
2021/11/11 07:16:33;;;;;;;9.70;4.50;;;;;;;2.89;100.00;101552.81;5190760;28;20029;-80
2021/11/11 07:19:03;;;;;;;9.05;4.32;;;;;;;3.22;100.00;101553.16;5181161;28;20029;-78
2021/11/11 07:21:34;;;;;;;7.35;3.80;;;;;;;3.28;100.00;101551.50;5179202;28;20033;-81
2021/11/11 07:24:04;;;;;;;7.20;4.10;;;;;;;3.14;100.00;101552.22;5186742;28;20643;-80
2021/11/11 07:26:35;;;;;;;9.48;4.78;;;;;;;3.40;100.00;101541.25;5190758;28;20037;-77
2021/11/11 07:29:05;;;;;;;6.78;3.95;;;;;;;3.40;100.00;101545.59;5190060;28;20025;-77
2021/11/11 07:31:35;;;;;;;5.85;3.63;;;;;;;3.40;100.00;101538.69;5185830;28;20076;-78
2021/11/11 07:34:06;;;;;;;7.45;3.63;;;;;;;3.49;100.00;101538.78;5188825;28;20104;-78
2021/11/11 07:36:38;;;;;;;6.38;4.05;;;;;;;3.58;100.00;101539.72;5193676;28;20036;-77
2021/11/11 07:39:08;;;;;;;11.13;4.20;;;;;;;3.66;100.00;101542.34;5190470;28;20032;-77
2021/11/11 07:41:38;;;;;;;8.45;4.15;;;;;;;3.89;100.00;101538.19;5189836;28;20483;-80
2021/11/11 07:44:10;;;;;;;9.15;4.88;;;;;;;3.89;100.00;101536.50;5181874;28;20021;-81
2021/11/11 07:46:41;;;;;;;7.35;4.20;;;;;;;4.14;100.00;101537.53;5185874;28;20060;-76
2021/11/11 07:49:13;;;;;;;8.07;4.40;;;;;;;4.20;100.00;101538.41;5190046;28;20054;-80
2021/11/11 07:51:44;;;;;;;7.72;4.72;;;;;;;4.17;100.00;101550.47;5186266;28;20108;-78
2021/11/11 07:54:14;;;;;;;8.15;4.75;;;;;;;4.21;100.00;101554.78;5188361;28;20064;-80
2021/11/11 07:56:44;;;;;;;11.05;4.65;;;;;;;4.16;100.00;101552.16;5185686;28;20593;-79
2021/11/11 07:59:14;;;;;;;12.20;4.60;;;;;;;4.22;100.00;101559.97;5185234;28;20130;-77
2021/11/11 08:01:45;;;;;;;9.18;4.85;;;;;;;4.30;100.00;101554.84;5199765;28;20033;-79
2021/11/11 08:04:15;;;;;;;10.45;5.50;;;;;;;4.36;100.00;101553.16;5199140;28;20472;-80
2021/11/11 08:06:45;;;;;;;8.50;4.72;;;;;;;4.33;100.00;101553.13;5188472;28;20083;-81
2021/11/11 08:09:16;;;;;;;10.43;5.10;;;;;;;4.43;100.00;101552.31;5186882;28;20026;-82
2021/11/11 08:11:46;;;;;;;9.23;5.20;;;;;;;4.44;100.00;101558.38;5184875;28;20036;-77
2021/11/11 08:14:16;;;;;;;11.30;5.38;;;;;;;4.56;100.00;101554.13;5186043;28;20576;-77
2021/11/11 08:16:47;;;;;;;8.23;4.85;;;;;;;4.52;100.00;101562.72;5192857;28;20025;-76
2021/11/11 08:19:17;;;;;;;7.55;4.72;;;;;;;4.50;100.00;101548.03;5202219;28;20098;-77
2021/11/11 08:21:48;;;;;;;8.90;5.47;;;;;;;4.63;100.00;101555.84;5201810;28;20036;-79
2021/11/11 08:24:19;;;;;;;14.43;6.00;;;;;;;4.65;100.00;101553.28;5201962;28;20040;-77
2021/11/11 08:26:49;;;;;;;10.15;5.72;;;;;;;4.85;100.00;101551.63;5197646;28;20029;-77
2021/11/11 08:29:19;;;;;;;11.52;6.22;;;;;;;5.01;100.00;101556.84;5181979;28;20038;-77
2021/11/11 08:31:50;;;;;;;11.48;6.55;;;;;;;5.13;100.00;101549.09;5181244;28;20042;-78
2021/11/11 08:34:21;;;;;;;11.30;6.05;;;;;;;5.20;100.00;101560.34;5180630;28;20480;-79
2021/11/11 08:36:51;;;;;;;12.52;6.00;;;;;;;5.27;100.00;101557.78;5183838;28;20036;-80
2021/11/11 08:39:21;;;;;;;12.30;6.40;;;;;;;5.28;100.00;101554.31;5192594;28;20025;-80
2021/11/11 08:41:52;;;;;;;11.07;5.82;;;;;;;5.38;100.00;101549.13;5185824;28;20033;-80
2021/11/11 08:44:23;;;;;;;11.43;5.88;;;;;;;5.41;100.00;101543.09;5183878;28;20734;-81
2021/11/11 08:46:54;;;;;;;9.10;5.35;;;;;;;5.49;100.00;101541.38;5186274;28;20105;-78
2021/11/11 08:49:24;;;;;;;11.27;5.40;;;;;;;5.45;100.00;101547.41;5183582;28;20029;-79
2021/11/11 08:51:55;;;;;;;12.57;5.35;;;;;;;5.57;100.00;101552.63;5197038;28;20448;-81
2021/11/11 08:54:25;;;;;;;8.95;5.35;;;;;;;5.68;100.00;101551.75;5192110;28;20022;-82
2021/11/11 08:56:56;;;;;;;10.43;5.30;;;;;;;5.65;100.00;101551.75;5181530;28;20041;-78
2021/11/11 08:59:26;;;;;;;11.82;5.80;;;;;;;5.67;100.00;101555.22;5185714;28;20038;-77
2021/11/11 09:01:56;;;;;;;11.02;5.90;;;;;;;5.56;100.00;101554.34;5184021;28;20029;-77
2021/11/11 09:04:27;;;;;;;10.10;5.60;;;;;;;5.54;100.00;101556.06;5191794;28;20049;-83
2021/11/11 09:06:59;;;;;;;10.13;5.75;;;;;;;5.67;100.00;101559.50;5188536;28;20594;-82
2021/11/11 09:09:30;;;;;;;10.60;6.05;;;;;;;5.84;100.00;101547.44;5188164;28;20026;-79
2021/11/11 09:12:00;;;;;;;11.52;5.95;;;;;;;5.92;100.00;101546.56;5189270;28;20033;-78
2021/11/11 09:14:31;;;;;;;11.15;6.32;;;;;;;5.97;100.00;101546.56;5186751;28;20044;-77
2021/11/11 09:17:01;;;;;;;10.65;6.32;;;;;;;6.20;100.00;101548.25;5184374;28;20030;-78
2021/11/11 09:19:32;;;;;;;15.18;6.60;;;;;;;6.31;100.00;101551.69;5173379;28;20081;-80
2021/11/11 09:22:02;;;;;;;14.98;6.88;;;;;;;6.55;100.00;101558.50;5187968;28;20038;-79
2021/11/11 09:24:33;;;;;;;13.65;6.57;;;;;;;6.51;100.00;101552.50;5186500;28;20034;-78
2021/11/11 09:27:03;;;;;;;10.70;6.15;;;;;;;6.44;100.00;101555.09;5182923;28;20033;-79
2021/11/11 09:29:34;;;;;;;11.38;6.35;;;;;;;6.56;100.00;101557.69;5175554;28;20034;-79
2021/11/11 09:32:05;;;;;;;11.30;6.55;;;;;;;6.57;100.00;101554.22;5181486;28;20092;-79
2021/11/11 09:34:35;;;;;;;12.20;6.25;;;;;;;6.45;100.00;101557.69;5180055;28;20022;-80
2021/11/11 09:37:05;;;;;;;10.68;6.22;;;;;;;6.50;100.00;101558.56;5175769;28;20026;-79
2021/11/11 09:39:36;;;;;;;11.68;6.50;;;;;;;6.71;100.00;101547.19;5181742;28;20571;-80
2021/11/11 09:42:07;;;;;;;12.25;6.47;;;;;;;6.63;100.00;101551.56;5177944;28;20754;-79
2021/11/11 09:44:37;;;;;;;10.27;5.65;;;;;;;6.78;100.00;101552.34;5175424;28;20120;-78
2021/11/11 09:47:09;;;;;;;13.60;6.55;;;;;;;6.79;100.00;101558.44;5185871;28;20074;-77
2021/11/11 09:49:39;;;;;;;11.57;5.82;;;;;;;6.75;100.00;101554.97;5174645;28;20030;-78
2021/11/11 09:52:10;;;;;;;9.93;6.10;;;;;;;7.03;100.00;101560.88;5176057;28;20061;-76
2021/11/11 10:00:02;;;;;;;13.20;6.78;;;;;;;6.96;100.00;101556.63;5194647;23;20333;-78
2021/11/11 10:02:32;;;;;;;9.93;6.22;;;;;;;7.11;100.00;101551.34;5171247;28;20030;-79
2021/11/11 10:05:04;;;;;;;11.68;6.35;;;;;;;7.16;100.00;101554.75;5154212;28;20025;-79
2021/11/11 10:07:34;;;;;;;12.43;6.15;;;;;;;7.36;100.00;101549.41;5173281;28;20484;-79
2021/11/11 10:10:06;;;;;;;11.88;6.20;;;;;;;7.40;100.00;101547.66;5169949;28;20038;-79
2021/11/11 10:12:36;;;;;;;11.48;6.82;;;;;;;7.47;100.00;101554.53;5154240;28;20098;-78
2021/11/11 10:15:11;;;;;;;11.73;6.53;;;;;;;7.35;100.00;101560.69;5157130;28;20022;-78
2021/11/11 10:17:43;;;;;;;13.50;6.85;;;;;;;7.29;100.00;101560.75;5159205;28;20062;-79
2021/11/11 10:20:14;;;;;;;11.13;5.93;;;;;;;7.33;100.00;101554.63;5157161;28;20038;-80
2021/11/11 10:22:44;;;;;;;11.55;6.20;;;;;;;7.32;100.00;101550.31;5157103;28;20109;-78
2021/11/11 10:25:14;;;;;;;14.00;7.18;;;;;;;7.49;100.00;101553.66;5157681;28;20031;-79
2021/11/11 10:27:52;;;;;;;11.90;6.45;;;;;;;7.67;100.00;101550.91;5156963;28;20035;-78
2021/11/11 10:30:26;;;;;;;9.40;5.38;;;;;;;7.72;100.00;101549.13;5158108;28;20046;-78
2021/11/11 10:33:17;;;;;;;10.02;6.30;;;;;;;7.70;100.00;101543.06;5157531;28;20027;-79
2021/11/11 10:35:54;;;;;;;12.07;6.15;;;;;;;7.53;100.00;101538.91;5159541;28;20043;-80
2021/11/11 10:38:26;;;;;;;10.57;6.18;;;;;;;7.68;100.00;101542.22;5156648;28;20029;-79
2021/11/11 10:40:57;;;;;;;11.05;5.93;;;;;;;7.92;100.00;101539.44;5157533;28;20062;-78
2021/11/11 10:43:29;;;;;;;10.48;6.72;;;;;;;7.98;100.00;101531.53;5155894;28;20022;-80
2021/11/11 10:45:59;;;;;;;10.63;6.40;;;;;;;8.05;100.00;101525.38;5155959;28;20023;-79
2021/11/11 10:48:31;;;;;;;12.77;6.10;;;;;;;8.07;100.00;101523.63;5156640;28;20124;-79
2021/11/11 10:51:05;;;;;;;10.15;6.07;;;;;;;8.37;100.00;101506.88;5156951;28;20098;-79
2021/11/11 10:53:36;;;;;;;12.50;6.05;;;;;;;8.36;100.00;101511.19;5155477;28;20045;-80
2021/11/11 10:56:06;;;;;;;11.57;6.63;;;;;;;8.34;100.00;101505.16;5156616;28;20019;-79
2021/11/11 10:58:40;;;;;;;11.27;6.82;;;;;;;8.50;100.00;101509.28;5156157;28;20062;-79
2021/11/11 11:01:19;;;;;;;15.30;7.07;;;;;;;8.78;100.00;101502.84;5154122;28;20026;-79
2021/11/11 11:03:49;;;;;;;13.10;7.28;;;;;;;8.64;100.00;101504.78;5152373;28;20058;-79
2021/11/11 11:06:27;;;;;;;15.27;7.45;;;;;;;8.85;100.00;101501.88;5153957;28;20046;-79
2021/11/11 11:08:59;;;;;;;12.50;7.28;;;;;;;8.79;100.00;101508.91;5146928;28;20039;-78
2021/11/11 11:11:33;;;;;;;13.77;6.93;;;;;;;8.89;100.00;101498.34;5148558;28;20466;-79
2021/11/11 11:14:13;;;;;;;13.20;7.18;;;;;;;8.82;100.00;101495.84;5151619;28;20034;-79
2021/11/11 11:16:44;;;;;;;15.02;7.03;;;;;;;8.88;100.00;101488.78;5151373;28;20034;-79
2021/11/11 11:19:17;;;;;;;15.05;7.70;;;;;;;8.93;100.00;101497.41;5154587;28;20031;-79
2021/11/11 11:21:54;;;;;;;16.40;8.32;;;;;;;9.05;100.00;101493.78;5155033;28;20035;-80
2021/11/11 11:24:28;;;;;;;18.05;8.30;;;;;;;9.05;100.00;101489.41;5155353;28;20504;-80
2021/11/11 11:27:04;;;;;;;17.13;8.55;;;;;;;9.15;100.00;101496.22;5153783;28;20050;-79
2021/11/11 11:29:43;;;;;;;15.98;8.35;;;;;;;9.40;100.00;101492.34;5153951;28;20058;-80
2021/11/11 11:32:29;;;;;;;13.80;7.25;;;;;;;9.39;100.00;101485.41;5154637;28;20023;-79
2021/11/11 11:35:03;;;;;;;13.55;7.40;;;;;;;9.47;100.00;101489.59;5155416;28;20030;-79
2021/11/11 11:37:35;;;;;;;16.45;7.65;;;;;;;9.65;100.00;101488.44;5157386;28;20035;-79
2021/11/11 11:40:12;;;;;;;12.60;6.70;;;;;;;9.51;100.00;101493.88;5154007;28;20065;-78
2021/11/11 11:42:46;;;;;;;12.50;7.10;;;;;;;9.57;100.00;101491.19;5151015;28;20026;-78
2021/11/11 11:45:23;;;;;;;15.88;7.95;;;;;;;9.55;100.00;101494.69;5147242;28;20279;-79
2021/11/11 11:53:14;;;;;;;20.40;10.40;;;;;;;9.66;100.00;101483.19;4019076;23;20120;-89
2021/11/11 11:56:04;;;;;;;25.90;13.73;;;;;;;9.78;100.00;101475.16;5174122;28;20472;-88
2021/11/11 11:58:42;;;;;;;22.85;12.05;;;;;;;9.62;100.00;101473.69;5180906;28;20483;-90
2021/11/11 12:01:32;;;;;;;14.25;7.47;;;;;;;9.68;100.00;101480.56;5180819;28;20090;-89
2021/11/11 12:04:17;;;;;;;11.73;6.32;;;;;;;9.70;100.00;101479.66;5213199;28;20030;-90
2021/11/11 12:07:07;;;;;;;11.65;5.80;;;;;;;9.76;100.00;101481.28;5189597;28;20061;-90
2021/11/11 12:40:41;;;;;;;5.32;2.63;;;;;;;9.90;100.00;101464.50;5185533;28;20060;-90
2021/11/11 12:43:20;;;;;;;3.92;2.65;;;;;;;9.89;100.00;101474.94;5176028;28;20025;-90
2021/11/11 12:45:51;;;;;;;4.30;2.15;;;;;;;9.89;100.00;101470.59;5182322;28;20114;-91